カラチ の空港の天気 - METARとTAF

ジンナー国際空港(カラチ) ( OPKC / KHI ) - パキスタン Karachi
飛行場実況気象(Metar)
観測時間08/05 00:55 PKT (08/04 19:55 UTC)
風向・風速西南西 5m/s
視程6000m
天気現象
全天の4割程度の雲 雲底高度 610m
気温31℃
湿度75%
気圧994hPa
METAROPKC 041955Z 24010KT 6000 SCT020 31/26 Q0994 NOSIG
過去の天気等 Google飛行場航空写真 Wunderground天気予報

過去48時間のMETAR

飛行場予報(TAF)
発表時間: 8/04 21:00 PKT (8/04 16:00 UTC)
予報対象時間: 4日23時 PKT ~ 6日5時 PKT
風向・風速南西 4m/s 瞬間風速 9m/s
視程6000m
全天の8割程度の雲 雲底高度 910m
5日5時 PKT ~ 5日9時 PKT に一時的に
風向・風速西南西 3m/s
視程4000m
天気現象煙霧
全天の8割程度の雲 雲底高度 910m
5日11時 PKT から
風向・風速南西 4m/s 瞬間風速 9m/s
視程6000m
全天の4割程度の雲 雲底高度 910m
TAF OPKC 041600Z 0418/0524 23008G18KT 6000 BKN030
TEMPO 0500/0504 25006KT 4000 HZ BKN030
FM 050630Z 23008G18KT 6000 SCT030